Terminal Aerodrome Forecast
Issued by NWS Brownsville, TX

Home | Current Version | Previous Version | Text Only | Print | Product List | Glossary On
Versions: 1 2 3 4 5 6 7 8 9 10 11 12 13 14 15 16 17 18
000
FTUS44 KBRO 020520
TAFMFE
TAF
KMFE 020520Z 0206/0306 11005KT P6SM SKC
     FM021500 13006KT P6SM SCT030
     FM021900 10007KT P6SM VCSH SCT030
     FM022200 11009KT P6SM SKC=

USA.gov is the U.S. government's official web portal to all federal, state and local government web resources and services.